Impacts METAR Board INFO
IDs:

KBWI - Baltimore-Washington, MD, US

Updated at: 0916 UTC 20 Jan 2018
Potential Impact None Slight Moderate High
Time19/21Z 19/22Z 19/23Z 20/00Z 20/01Z 20/02Z 20/03Z 20/04Z 20/05Z 20/06Z 20/07Z 20/08Z 20/09Z
VIS10 10 10 10 10 10 10 10 10 10 10 10 10
CIG-- -- -- -- -- -- -- -- -- -- -- -- --
CoverSCTFEWFEWFEWCLRCLRCLRCLRCLRCLRCLRCLRCLR
FltCatVFRVFRVFRVFRVFRVFRVFRVFRVFRVFRVFRVFRVFR
WX--------------------------
WDir27019016000002600270280270240
WSpd5 4 4 0 0 0 0 3 0 3 3 3 3
WGst-- -- -- -- -- -- -- -- -- -- -- -- --
Raw hourly METARs
KBWI 192054Z 27005KT 10SM FEW160 SCT250 11/M11 A3003 RMK AO2 SLP169 T01061106 55009
KBWI 192154Z COR 19004KT 10SM FEW160 FEW250 09/M11 A3002 RMK AO2 SLP168 T00941106
KBWI 192254Z 16004KT 10SM FEW160 FEW250 06/M08 A3003 RMK AO2 SLP169 T00561083
KBWI 192354Z 00000KT 10SM FEW250 03/M08 A3003 RMK AO2 SLP171 T00281078 10111 20028 53002
KBWI 200054Z 00000KT 10SM CLR 01/M07 A3004 RMK AO2 SLP173 T00061072
KBWI 200154Z 00000KT 10SM CLR M02/M07 A3003 RMK AO2 SLP172 T10171072
KBWI 200254Z 00000KT 10SM CLR M01/M07 A3003 RMK AO2 SLP171 T10111072 58000
KBWI 200354Z 26003KT 10SM CLR M02/M07 A3003 RMK AO2 SLP169 T10221067
KBWI 200454Z 00000KT 10SM CLR M02/M07 A3001 RMK AO2 SLP163 T10171072 401111067
KBWI 200554Z 27003KT 10SM CLR M03/M07 A3000 RMK AO2 SLP160 T10281067 10028 21044 58010
KBWI 200654Z 28003KT 10SM CLR M03/M07 A2999 RMK AO2 SLP154 T10281067
KBWI 200754Z 27003KT 10SM CLR M03/M07 A2998 RMK AO2 SLP154 T10281072
KBWI 200854Z 24003KT 10SM CLR M02/M08 A2997 RMK AO2 SLP149 T10221078 56011